createdAt,value
2023-02-06T00:00:16.168Z,103417.75
2023-02-06T00:03:21.211Z,103423.38
2023-02-06T00:06:24.809Z,103419.22
2023-02-06T00:09:28.905Z,103424.25
2023-02-06T00:12:32.338Z,103424.16
2023-02-06T00:15:36.651Z,103435.88
2023-02-06T00:18:41.617Z,103432.81
2023-02-06T00:21:45.669Z,103444.50
2023-02-06T00:24:48.858Z,103437.03
2023-02-06T00:27:52.692Z,103440.22
2023-02-06T00:30:55.919Z,103441.25
2023-02-06T00:34:00.596Z,103446.22
2023-02-06T00:37:03.748Z,103456.25
2023-02-06T00:40:08.769Z,103453.03
2023-02-06T00:43:12.399Z,103445.44
2023-02-06T00:46:15.752Z,103454.88
2023-02-06T00:49:22.173Z,103448.06
2023-02-06T00:52:30.280Z,103437.94
2023-02-06T00:55:34.043Z,103441.34
2023-02-06T00:58:37.315Z,103452.28
2023-02-06T01:01:43.172Z,103442.22
2023-02-06T01:04:47.769Z,103446.44
2023-02-06T01:07:51.401Z,103433.72
2023-02-06T01:10:56.645Z,103424.44
2023-02-06T01:14:01.622Z,103424.53
2023-02-06T01:17:05.292Z,103431.19
2023-02-06T01:20:13.176Z,103438.09
2023-02-06T01:23:16.400Z,103432.16
2023-02-06T01:26:24.161Z,103432.91
2023-02-06T01:29:27.201Z,103441.25
2023-02-06T01:32:30.330Z,103444.78
2023-02-06T01:35:34.993Z,103426.91
2023-02-06T01:38:38.412Z,103427.81
2023-02-06T01:41:41.522Z,103420.78
2023-02-06T01:44:48.149Z,103405.75
2023-02-06T01:47:53.565Z,103400.66
2023-02-06T01:50:59.644Z,103402.28
2023-02-06T01:54:06.499Z,103403.91
2023-02-06T01:57:12.948Z,103393.72
2023-02-06T02:00:16.520Z,103390.22
2023-02-06T02:03:21.183Z,103385.84
2023-02-06T02:06:28.567Z,103379.97
2023-02-06T02:09:32.849Z,103378.16
2023-02-06T02:12:36.193Z,103387.41
2023-02-06T02:15:47.449Z,103383.25
2023-02-06T02:19:16.749Z,103373.81
2023-02-06T02:22:41.369Z,103356.59
2023-02-06T02:26:45.662Z,103356.88
2023-02-06T02:30:32.219Z,103353.47
2023-02-06T02:34:12.874Z,103340.94
2023-02-06T02:37:28.648Z,103327.63
2023-02-06T02:40:44.195Z,103335.38
2023-02-06T02:43:56.264Z,103336.38
2023-02-06T02:47:05.284Z,103334.88
2023-02-06T02:50:09.318Z,103327.44
2023-02-06T02:53:15.045Z,103335.31
2023-02-06T02:56:22.324Z,103326.94
2023-02-06T02:59:31.643Z,103321.09
2023-02-06T03:02:39.971Z,103316.84
2023-02-06T03:05:55.475Z,103316.84
2023-02-06T03:09:08.107Z,103313.72
2023-02-06T03:12:20.148Z,103325.69
2023-02-06T03:15:31.164Z,103334.34
2023-02-06T03:18:42.220Z,103339.69
2023-02-06T03:21:47.604Z,103327.16
2023-02-06T03:24:53.826Z,103335.81
2023-02-06T03:27:59.991Z,103333.41
2023-02-06T03:31:09.310Z,103321.66
2023-02-06T03:34:19.417Z,103312.44
2023-02-06T03:37:23.602Z,103299.66
2023-02-06T03:40:29.895Z,103303.91
2023-02-06T03:43:33.720Z,103309.22
2023-02-06T03:46:38.654Z,103297.59
2023-02-06T03:49:44.031Z,103299.47
2023-02-06T03:52:53.498Z,103306.28
2023-02-06T03:56:03.629Z,103318.41
2023-02-06T03:59:07.047Z,103321.88
2023-02-06T04:02:10.738Z,103337.25
2023-02-06T04:05:14.464Z,103333.84
2023-02-06T04:08:17.927Z,103324.69
2023-02-06T04:11:22.431Z,103330.00
2023-02-06T04:14:25.649Z,103328.50
2023-02-06T04:17:46.374Z,103320.03
2023-02-06T04:20:53.022Z,103313.41
2023-02-06T04:23:56.308Z,103316.06
2023-02-06T04:27:00.814Z,103295.78
2023-02-06T04:30:04.516Z,103287.31
2023-02-06T04:33:07.910Z,103283.94
2023-02-06T04:36:11.236Z,103278.91
2023-02-06T04:39:14.527Z,103290.00
2023-02-06T04:42:19.095Z,103290.88
2023-02-06T04:45:22.477Z,103287.59
2023-02-06T04:48:27.528Z,103282.53
2023-02-06T04:51:31.114Z,103288.41
2023-02-06T04:54:34.408Z,103295.25
2023-02-06T04:57:39.667Z,103293.69
2023-02-06T05:00:43.625Z,103298.84
2023-02-06T05:03:47.582Z,103297.22
2023-02-06T05:06:51.279Z,103287.13
2023-02-06T05:09:54.780Z,103288.91
2023-02-06T05:12:59.432Z,103295.59
2023-02-06T05:16:07.609Z,103297.47
2023-02-06T05:19:11.130Z,103303.41
2023-02-06T05:22:14.440Z,103287.41
2023-02-06T05:25:21.832Z,103279.03
2023-02-06T05:28:34.874Z,103286.72
2023-02-06T05:31:41.122Z,103287.56
2023-02-06T05:34:46.875Z,103279.19
2023-02-06T05:38:05.061Z,103274.16
2023-02-06T05:41:14.898Z,103264.94
2023-02-06T05:44:24.713Z,103252.25
2023-02-06T05:47:38.257Z,103259.25
2023-02-06T05:50:49.157Z,103264.34
2023-02-06T05:54:01.787Z,103272.03
2023-02-06T05:57:15.168Z,103267.03
2023-02-06T06:00:27.120Z,103281.59
2023-02-06T06:03:40.125Z,103277.03
2023-02-06T06:07:02.595Z,103288.34
2023-02-06T06:10:21.282Z,103294.44
2023-02-06T06:13:28.678Z,103295.31
2023-02-06T06:16:53.706Z,103288.59
2023-02-06T06:20:03.435Z,103306.63
2023-02-06T06:23:08.197Z,103302.25
2023-02-06T06:26:22.357Z,103299.91
2023-02-06T06:29:25.450Z,103293.97
2023-02-06T06:32:32.558Z,103294.72
2023-02-06T06:35:36.095Z,103288.78
2023-02-06T06:38:40.038Z,103288.00
2023-02-06T06:41:43.123Z,103290.59
2023-02-06T06:44:49.552Z,103289.88
2023-02-06T06:47:58.241Z,103294.22
2023-02-06T06:51:06.083Z,103283.19
2023-02-06T06:54:13.268Z,103277.25
2023-02-06T06:57:20.553Z,103273.84
2023-02-06T07:00:27.539Z,103268.81
2023-02-06T07:03:35.934Z,103266.28
2023-02-06T07:10:01.625Z,103267.22
2023-02-06T07:13:06.119Z,103261.28
2023-02-06T07:16:10.435Z,103263.88
2023-02-06T07:19:14.914Z,103262.25
2023-02-06T07:22:18.204Z,103263.13
2023-02-06T07:25:22.342Z,103267.38
2023-02-06T07:28:25.392Z,103267.41
2023-02-06T07:31:28.808Z,103273.50
2023-02-06T07:34:33.231Z,103263.38
2023-02-06T07:37:36.259Z,103262.63
2023-02-06T07:40:45.151Z,103251.66
2023-02-06T07:43:50.919Z,103249.16
2023-02-06T07:46:53.906Z,103253.47
2023-02-06T07:49:58.563Z,103251.78
2023-02-06T07:53:02.477Z,103250.19
2023-02-06T07:56:12.804Z,103235.94
2023-02-06T07:59:15.918Z,103235.97
2023-02-06T08:02:19.181Z,103234.38
2023-02-06T08:05:23.593Z,103251.50
2023-02-06T08:08:27.560Z,103253.94
2023-02-06T08:11:31.037Z,103257.44
2023-02-06T08:14:34.094Z,103249.06
2023-02-06T08:17:37.074Z,103254.91
2023-02-06T08:20:41.358Z,103245.78
2023-02-06T08:23:45.335Z,103251.06
2023-02-06T08:26:48.302Z,103248.59
2023-02-06T08:29:51.725Z,103241.03
2023-02-06T08:32:54.874Z,103245.41
2023-02-06T08:36:02.693Z,103237.84
2023-02-06T08:39:06.841Z,103233.50
2023-02-06T08:42:10.549Z,103236.13
2023-02-06T08:45:13.582Z,103242.94
2023-02-06T08:48:17.141Z,103238.75
2023-02-06T08:51:22.756Z,103245.63
2023-02-06T08:54:25.938Z,103242.13
2023-02-06T08:57:32.669Z,103240.59
2023-02-06T09:00:39.110Z,103229.59
2023-02-06T09:03:44.856Z,103223.66
2023-02-06T09:06:50.146Z,103224.47
2023-02-06T09:09:53.188Z,103227.88
2023-02-06T09:12:57.652Z,103231.41
2023-02-06T09:16:00.805Z,103240.78
2023-02-06T09:19:04.862Z,103245.03
2023-02-06T09:22:09.562Z,103250.22
2023-02-06T09:25:12.991Z,103265.53
2023-02-06T09:28:16.277Z,103266.41
2023-02-06T09:31:19.384Z,103268.16
2023-02-06T09:34:24.168Z,103280.00
2023-02-06T09:37:30.239Z,103290.06
2023-02-06T09:40:36.164Z,103279.81
2023-02-06T09:43:39.860Z,103285.91
2023-02-06T09:46:48.237Z,103290.94
2023-02-06T09:49:54.807Z,103295.19
2023-02-06T09:53:18.464Z,103290.88
2023-02-06T09:56:33.386Z,103297.59
2023-02-06T09:59:44.389Z,103300.16
2023-02-06T10:03:37.390Z,103298.41
2023-02-06T10:06:49.329Z,103295.84
2023-02-06T10:09:57.692Z,103303.59
2023-02-06T10:13:08.114Z,103300.28
2023-02-06T10:16:30.024Z,103297.63
2023-02-06T10:19:43.726Z,103298.47
2023-02-06T10:22:55.424Z,103299.31
2023-02-06T10:26:12.450Z,103302.63
2023-02-06T10:29:23.938Z,103298.38
2023-02-06T10:32:42.828Z,103289.09
2023-02-06T10:35:56.674Z,103293.28
2023-02-06T10:39:45.664Z,103289.94
2023-02-06T10:43:00.168Z,103289.09
2023-02-06T10:46:26.561Z,103285.66
2023-02-06T10:49:37.362Z,103280.66
2023-02-06T10:52:40.975Z,103276.50
2023-02-06T10:55:51.110Z,103273.91
2023-02-06T10:58:59.663Z,103288.44
2023-02-06T11:02:19.484Z,103293.38
2023-02-06T11:05:26.217Z,103282.44
2023-02-06T11:08:33.801Z,103284.16
2023-02-06T11:11:41.670Z,103296.88
2023-02-06T11:14:46.152Z,103311.28
2023-02-06T11:17:50.129Z,103294.97
2023-02-06T11:20:55.738Z,103297.41
2023-02-06T11:24:11.318Z,103298.28
2023-02-06T11:27:18.482Z,103288.06
2023-02-06T11:30:35.715Z,103288.88
2023-02-06T11:33:51.823Z,103284.69
2023-02-06T11:36:57.375Z,103301.81
2023-02-06T11:40:23.369Z,103302.75
2023-02-06T11:43:28.835Z,103304.66
2023-02-06T11:46:35.458Z,103308.16
2023-02-06T11:49:38.555Z,103306.34
2023-02-06T11:52:46.383Z,103305.59
2023-02-06T11:56:06.066Z,103312.34
2023-02-06T11:59:23.204Z,103305.69
2023-02-06T12:02:32.159Z,103304.84
2023-02-06T12:05:41.027Z,103307.59
2023-02-06T12:08:49.840Z,103312.63
2023-02-06T12:11:59.997Z,103310.16
2023-02-06T12:15:33.169Z,103308.47
2023-02-06T12:18:38.370Z,103303.47
2023-02-06T12:21:46.426Z,103316.06
2023-02-06T12:24:53.025Z,103320.41
2023-02-06T12:28:00.827Z,103315.44
2023-02-06T12:31:10.485Z,103315.41
2023-02-06T12:34:19.836Z,103323.84
2023-02-06T12:37:32.370Z,103328.19
2023-02-06T12:40:46.797Z,103337.66
2023-02-06T12:43:54.685Z,103335.13
2023-02-06T12:47:03.770Z,103334.41
2023-02-06T12:50:16.717Z,103338.63
2023-02-06T12:53:27.231Z,103343.84
2023-02-06T12:56:36.289Z,103343.06
2023-02-06T13:00:11.866Z,103344.00
2023-02-06T13:03:29.787Z,103339.00
2023-02-06T13:06:45.772Z,103348.38
2023-02-06T13:10:08.420Z,103340.81
2023-02-06T13:13:34.720Z,103344.84
2023-02-06T13:16:53.586Z,103368.88
2023-02-06T13:20:08.871Z,103368.09
2023-02-06T13:23:29.851Z,103374.22
2023-02-06T13:27:17.934Z,103377.44
2023-02-06T13:31:01.209Z,103386.81
2023-02-06T13:34:20.688Z,103386.78
2023-02-06T13:43:18.899Z,103403.22
2023-02-06T13:48:04.085Z,103407.41
2023-02-06T13:52:24.914Z,103412.81
2023-02-06T13:56:03.227Z,103417.13
2023-02-06T13:59:21.303Z,103414.50
2023-02-06T14:02:47.980Z,103430.72
2023-02-06T14:06:26.198Z,103427.22
2023-02-06T14:10:23.296Z,103431.47
2023-02-06T14:13:56.607Z,103435.91
2023-02-06T14:17:29.567Z,103433.50
2023-02-06T14:20:45.073Z,103447.69
2023-02-06T14:24:24.243Z,103447.78
2023-02-06T14:27:58.520Z,103461.56
2023-02-06T14:31:38.959Z,103464.97
2023-02-06T14:40:23.694Z,103482.13
2023-02-06T14:43:33.924Z,103506.63
2023-02-06T14:46:41.938Z,103501.59
2023-02-06T14:49:45.810Z,103514.22
2023-02-06T14:52:54.166Z,103513.41
2023-02-06T14:56:09.897Z,103503.28
2023-02-06T14:59:18.277Z,103512.53
2023-02-06T15:02:30.862Z,103522.59
2023-02-06T15:05:34.291Z,103518.25
2023-02-06T15:08:38.127Z,103529.19
2023-02-06T15:11:41.817Z,103521.59
2023-02-06T15:14:53.709Z,103522.38
2023-02-06T15:18:00.601Z,103533.44
2023-02-06T15:21:05.851Z,103541.84
2023-02-06T15:24:25.471Z,103538.25
2023-02-06T15:27:32.030Z,103544.22
2023-02-06T15:30:37.099Z,103538.44
2023-02-06T15:33:45.468Z,103546.16
2023-02-06T15:36:49.100Z,103548.56
2023-02-06T15:39:54.061Z,103547.81
2023-02-06T15:42:58.427Z,103547.00
2023-02-06T15:46:04.582Z,103551.22
2023-02-06T15:49:19.046Z,103554.53
2023-02-06T15:52:39.683Z,103563.84
2023-02-06T15:55:51.796Z,103561.19
2023-02-06T15:59:30.678Z,103567.00
2023-02-06T16:02:37.699Z,103569.31
2023-02-06T16:05:43.761Z,103581.06
2023-02-06T16:08:52.745Z,103579.34
2023-02-06T16:11:58.921Z,103571.69
2023-02-06T16:15:22.320Z,103576.75
2023-02-06T16:18:31.441Z,103578.22
2023-02-06T16:21:39.823Z,103577.22
2023-02-06T16:24:42.856Z,103580.66
2023-02-06T16:27:46.859Z,103582.97
2023-02-06T16:30:56.495Z,103570.13
2023-02-06T16:34:03.194Z,103571.94
2023-02-06T16:37:12.999Z,103579.41
2023-02-06T16:40:17.276Z,103580.13
2023-02-06T16:43:20.737Z,103584.31
2023-02-06T16:46:24.220Z,103600.56
2023-02-06T16:49:35.844Z,103599.00
2023-02-06T16:52:49.956Z,103601.41
2023-02-06T16:55:54.706Z,103610.53
2023-02-06T16:58:57.775Z,103612.97
2023-02-06T17:02:03.376Z,103608.69
2023-02-06T17:05:07.050Z,103603.53
2023-02-06T17:08:18.594Z,103603.41
2023-02-06T17:11:21.643Z,103599.13
2023-02-06T17:14:24.669Z,103601.50
2023-02-06T17:17:28.507Z,103607.28
2023-02-06T17:20:36.063Z,103623.38
2023-02-06T17:23:40.964Z,103618.47
2023-02-06T17:26:44.085Z,103615.09
2023-02-06T17:29:47.943Z,103614.94
2023-02-06T17:32:51.125Z,103614.78
2023-02-06T17:35:54.145Z,103614.69
2023-02-06T17:38:59.201Z,103618.75
2023-02-06T17:42:02.503Z,103615.38
2023-02-06T17:45:06.301Z,103620.19
2023-02-06T17:48:09.929Z,103621.03
2023-02-06T17:51:13.079Z,103627.94
2023-02-06T17:54:17.834Z,103624.56
2023-02-06T17:57:20.960Z,103624.44
2023-02-06T18:00:26.082Z,103616.78
2023-02-06T18:03:48.060Z,103617.44
2023-02-06T18:06:51.506Z,103620.72
2023-02-06T18:09:56.179Z,103611.31
2023-02-06T18:12:59.303Z,103609.66
2023-02-06T18:16:02.568Z,103618.91
2023-02-06T18:19:06.067Z,103608.59
2023-02-06T18:22:09.696Z,103615.41
2023-02-06T18:25:15.796Z,103616.00
2023-02-06T18:28:19.881Z,103616.56
2023-02-06T18:31:27.029Z,103605.31
2023-02-06T18:34:30.296Z,103601.91
2023-02-06T18:37:33.411Z,103599.25
2023-02-06T18:40:39.177Z,103603.22
2023-02-06T18:43:42.438Z,103605.50
2023-02-06T18:46:45.972Z,103605.34
2023-02-06T18:49:49.237Z,103605.13
2023-02-06T18:52:52.411Z,103610.09
2023-02-06T18:56:01.476Z,103605.88
2023-02-06T18:59:05.548Z,103612.53
2023-02-06T19:02:10.216Z,103623.28
2023-02-06T19:05:13.578Z,103627.47
2023-02-06T19:08:22.343Z,103635.03
2023-02-06T19:11:26.804Z,103628.97
2023-02-06T19:14:29.847Z,103634.03
2023-02-06T19:17:32.984Z,103621.81
2023-02-06T19:20:36.322Z,103626.03
2023-02-06T19:23:40.278Z,103638.69
2023-02-06T19:26:44.731Z,103643.72
2023-02-06T19:29:48.107Z,103645.31
2023-02-06T19:32:51.514Z,103646.06
2023-02-06T19:35:55.035Z,103647.47
2023-02-06T19:39:00.327Z,103652.41
2023-02-06T19:42:07.464Z,103651.56
2023-02-06T19:45:10.633Z,103653.19
2023-02-06T19:48:13.989Z,103667.47
2023-02-06T19:51:22.094Z,103655.53
2023-02-06T19:54:25.611Z,103672.50
2023-02-06T19:57:29.995Z,103668.16
2023-02-06T20:00:33.155Z,103675.81
2023-02-06T20:03:36.517Z,103669.69
2023-02-06T20:06:40.579Z,103662.84
2023-02-06T20:09:43.692Z,103664.56
2023-02-06T20:12:48.354Z,103664.38
2023-02-06T20:15:51.515Z,103679.44
2023-02-06T20:18:56.372Z,103691.06
2023-02-06T20:22:02.714Z,103674.19
2023-02-06T20:25:08.416Z,103667.47
2023-02-06T20:28:15.082Z,103669.81
2023-02-06T20:31:25.234Z,103667.03
2023-02-06T20:34:29.644Z,103674.75
2023-02-06T20:37:32.996Z,103670.47
2023-02-06T20:40:36.701Z,103672.06
2023-02-06T20:43:41.262Z,103671.00
2023-02-06T20:46:44.860Z,103676.03
2023-02-06T20:49:51.702Z,103670.81
2023-02-06T20:52:57.433Z,103669.91
2023-02-06T20:56:20.344Z,103673.19
2023-02-06T20:59:31.938Z,103668.91
2023-02-06T21:02:35.316Z,103674.78
2023-02-06T21:05:42.009Z,103683.09
2023-02-06T21:08:50.109Z,103678.06
2023-02-06T21:11:53.603Z,103677.88
2023-02-06T21:15:00.844Z,103687.75
2023-02-06T21:18:03.855Z,103700.47
2023-02-06T21:21:10.038Z,103706.34
2023-02-06T21:24:13.890Z,103699.44
2023-02-06T21:27:19.340Z,103690.97
2023-02-06T21:30:23.742Z,103701.16
2023-02-06T21:33:26.910Z,103707.06
2023-02-06T21:36:30.798Z,103711.28
2023-02-06T21:39:33.964Z,103710.44
2023-02-06T21:42:37.018Z,103709.38
2023-02-06T21:45:41.951Z,103713.41
2023-02-06T21:48:45.558Z,103693.75
2023-02-06T21:51:48.714Z,103688.53
2023-02-06T21:54:51.801Z,103689.41
2023-02-06T21:57:56.247Z,103689.34
2023-02-06T22:01:00.592Z,103687.47
2023-02-06T22:04:05.151Z,103693.38
2023-02-06T22:07:10.917Z,103707.91
2023-02-06T22:10:13.959Z,103701.81
2023-02-06T22:13:17.248Z,103699.19
2023-02-06T22:16:24.742Z,103699.84
2023-02-06T22:19:28.658Z,103699.63
2023-02-06T22:22:31.738Z,103706.31
2023-02-06T22:25:37.024Z,103701.22
2023-02-06T22:28:41.002Z,103708.84
2023-02-06T22:31:46.252Z,103709.66
2023-02-06T22:34:50.869Z,103715.69
2023-02-06T22:37:53.871Z,103713.19
2023-02-06T22:41:01.615Z,103713.81
2023-02-06T22:44:05.322Z,103710.41
2023-02-06T22:47:10.243Z,103700.91
2023-02-06T22:50:13.263Z,103711.03
2023-02-06T22:53:31.905Z,103702.59
2023-02-06T22:56:37.338Z,103705.88
2023-02-06T22:59:40.580Z,103715.75
2023-02-06T23:02:45.425Z,103719.09
2023-02-06T23:05:48.538Z,103721.69
2023-02-06T23:08:51.754Z,103719.34
2023-02-06T23:11:58.091Z,103715.06
2023-02-06T23:15:01.176Z,103725.97
2023-02-06T23:18:06.973Z,103727.41
2023-02-06T23:21:12.836Z,103731.41
2023-02-06T23:24:17.081Z,103727.88
2023-02-06T23:27:20.964Z,103725.31
2023-02-06T23:30:24.630Z,103728.38
2023-02-06T23:33:29.143Z,103738.53
2023-02-06T23:36:32.279Z,103749.44
2023-02-06T23:39:35.367Z,103749.31
2023-02-06T23:42:39.058Z,103739.16
2023-02-06T23:45:42.315Z,103747.66
2023-02-06T23:48:47.050Z,103751.81
2023-02-06T23:51:50.114Z,103750.84
2023-02-06T23:54:53.215Z,103755.94
2023-02-06T23:57:56.226Z,103746.53
